Time;durP1;ratioP1;P1;durP2;ratioP2;P2;SDS_P1;SDS_P2;PMS_P1;PMS_P2;Temp;Humidity;BMP_temperature;BMP_pressure;BME280_temperature;BME280_humidity;BME280_pressure;Samples;Min_cycle;Max_cycle;Signal;HPM_P1;HPM_P2
2021/04/23 00:00:28;;;;;;;8.18;4.80;;;;;;;21.00;53.66;100802.95;1634895;86;21778;-59
2021/04/23 00:02:58;;;;;;;6.30;3.95;;;;;;;21.00;53.66;100799.63;1637052;86;21611;-59
2021/04/23 00:05:24;;;;;;;8.13;4.75;;;;;;;21.01;53.66;100796.27;1634883;85;21619;-59
2021/04/23 00:07:51;;;;;;;8.48;4.53;;;;;;;21.00;53.66;100796.04;1672555;85;21197;-59
2021/04/23 00:10:19;;;;;;;5.72;4.40;;;;;;;21.01;53.65;100803.18;1652769;85;21263;-58
2021/04/23 00:12:46;;;;;;;9.45;4.60;;;;;;;20.99;53.63;100814.58;1651305;85;21190;-59
2021/04/23 00:15:15;;;;;;;7.53;4.83;;;;;;;21.00;53.63;100822.31;1652263;85;21205;-59
2021/04/23 00:17:42;;;;;;;6.65;4.47;;;;;;;20.98;53.62;100816.53;1652225;85;21321;-59
2021/04/23 00:20:23;;;;;;;8.40;4.83;;;;;;;20.96;53.62;100824.31;1651801;85;21225;-59
2021/04/23 00:23:05;;;;;;;7.28;4.22;;;;;;;20.96;53.62;100825.70;1651937;85;21197;-59
2021/04/23 00:25:31;;;;;;;6.65;4.53;;;;;;;20.96;53.61;100819.38;1659572;85;21679;-59
2021/04/23 00:28:01;;;;;;;7.95;4.25;;;;;;;20.95;53.61;100828.23;1655513;85;21241;-59
2021/04/23 00:30:31;;;;;;;9.85;4.62;;;;;;;20.94;53.59;100826.60;1632577;86;21240;-59
2021/04/23 00:32:58;;;;;;;8.25;4.35;;;;;;;20.93;53.59;100824.14;1629306;86;21282;-59
2021/04/23 00:35:28;;;;;;;6.70;4.08;;;;;;;20.92;53.58;100821.94;1658583;84;21224;-59
2021/04/23 00:37:55;;;;;;;8.63;4.53;;;;;;;20.92;53.60;100844.63;1682188;84;21641;-59
2021/04/23 00:40:32;;;;;;;7.40;4.53;;;;;;;20.90;53.59;100838.05;1684852;84;21241;-59
2021/04/23 00:42:59;;;;;;;6.70;4.80;;;;;;;20.90;53.57;100847.73;1679824;84;21251;-59
2021/04/23 00:45:28;;;;;;;6.75;4.15;;;;;;;20.88;53.57;100841.69;1677711;84;21664;-59
2021/04/23 00:47:56;;;;;;;6.92;3.87;;;;;;;20.88;53.56;100836.16;1671710;84;21266;-59
2021/04/23 00:50:33;;;;;;;4.42;3.77;;;;;;;20.88;53.59;100841.69;1682354;83;21702;-58
2021/04/23 00:52:59;;;;;;;6.47;4.15;;;;;;;20.89;53.55;100841.13;1684710;83;21654;-59
2021/04/23 00:55:26;;;;;;;6.85;4.28;;;;;;;20.88;53.55;100841.69;1689768;83;23547;-59
2021/04/23 00:57:53;;;;;;;7.03;4.42;;;;;;;20.88;53.55;100833.39;1678392;83;21236;-60
2021/04/23 01:00:20;;;;;;;6.42;4.20;;;;;;;20.89;53.55;100838.36;1675167;83;21222;-58
2021/04/23 01:02:47;;;;;;;7.08;4.22;;;;;;;20.88;53.56;100832.02;1678681;83;21170;-58
2021/04/23 01:05:15;;;;;;;6.62;3.98;;;;;;;20.88;53.54;100830.63;1676783;83;21279;-58
2021/04/23 01:07:48;;;;;;;6.22;4.22;;;;;;;20.88;53.53;100829.81;1686769;83;21558;-58
2021/04/23 01:10:17;;;;;;;7.10;4.03;;;;;;;20.87;53.52;100831.78;1686544;83;21146;-58
2021/04/23 01:12:43;;;;;;;9.28;4.72;;;;;;;20.87;53.50;100843.41;1678971;83;21171;-58
2021/04/23 01:15:11;;;;;;;7.03;4.05;;;;;;;20.86;53.50;100835.68;1681986;83;21088;-58
2021/04/23 01:17:38;;;;;;;8.73;4.22;;;;;;;20.85;53.49;100828.52;1687280;83;21204;-58
2021/04/23 01:20:06;;;;;;;6.15;3.83;;;;;;;20.85;53.48;100834.04;1681105;83;21241;-58
2021/04/23 01:22:34;;;;;;;7.80;4.08;;;;;;;20.84;53.45;100832.41;1681920;83;21246;-58
2021/04/23 01:25:00;;;;;;;6.72;3.98;;;;;;;20.84;53.46;100839.88;1692664;83;21142;-58
2021/04/23 01:27:27;;;;;;;8.03;4.40;;;;;;;20.83;53.47;100838.27;1684070;83;21566;-58
2021/04/23 01:29:54;;;;;;;6.33;4.30;;;;;;;20.81;53.44;100837.20;1687102;83;21551;-58
2021/04/23 01:32:20;;;;;;;6.95;4.28;;;;;;;20.82;53.45;100838.02;1687267;83;23609;-58
2021/04/23 01:34:47;;;;;;;6.80;4.15;;;;;;;20.80;53.42;100842.47;1680977;83;21489;-58
2021/04/23 01:37:14;;;;;;;6.78;4.20;;;;;;;20.80;53.42;100841.09;1680716;83;21183;-58
2021/04/23 01:39:42;;;;;;;6.30;4.20;;;;;;;20.81;53.40;100846.05;1693148;83;21226;-58
2021/04/23 01:42:10;;;;;;;7.15;3.90;;;;;;;20.80;53.41;100841.66;1684472;83;21163;-58
2021/04/23 01:44:37;;;;;;;7.10;4.20;;;;;;;20.80;53.42;100841.66;1688396;83;21207;-59
2021/04/23 01:47:04;;;;;;;5.85;3.95;;;;;;;20.80;53.40;100836.94;1678714;83;21119;-60
2021/04/23 01:49:31;;;;;;;6.12;3.80;;;;;;;20.81;53.40;100842.73;1686490;83;21221;-59
2021/04/23 01:52:11;;;;;;;6.25;3.92;;;;;;;20.81;53.42;100840.52;1698110;83;21615;-59
2021/04/23 01:54:37;;;;;;;8.75;5.78;;;;;;;20.81;53.38;100840.52;1688966;83;21157;-60
2021/04/23 01:57:05;;;;;;;7.95;4.17;;;;;;;20.80;53.38;100836.94;1686618;83;22170;-59
2021/04/23 01:59:32;;;;;;;6.75;4.62;;;;;;;20.78;53.38;100835.08;1679093;83;21147;-59
2021/04/23 02:01:59;;;;;;;5.95;3.65;;;;;;;20.79;53.38;100835.89;1684367;83;21580;-59
2021/04/23 02:04:26;;;;;;;4.67;3.67;;;;;;;20.78;53.34;100837.02;1693210;83;21072;-59
2021/04/23 02:06:53;;;;;;;4.72;3.30;;;;;;;20.77;53.34;100838.97;1694919;83;21258;-59
2021/04/23 02:09:20;;;;;;;5.33;3.83;;;;;;;20.77;53.33;100834.82;1688444;83;21226;-59
2021/04/23 02:11:48;;;;;;;8.98;4.37;;;;;;;20.76;53.33;100832.36;1682916;83;21157;-60
2021/04/23 02:14:15;;;;;;;5.58;3.47;;;;;;;20.76;53.33;100837.33;1689170;83;21148;-59
2021/04/23 02:16:41;;;;;;;5.58;3.58;;;;;;;20.75;53.34;100825.22;1686499;83;21928;-59
2021/04/23 02:19:09;;;;;;;7.05;4.10;;;;;;;20.74;53.33;100824.97;1686268;83;21467;-61
2021/04/23 02:21:36;;;;;;;5.75;4.12;;;;;;;20.73;53.32;100821.95;1683729;83;22117;-59
2021/04/23 02:24:04;;;;;;;8.40;4.30;;;;;;;20.73;53.35;100827.48;1678678;83;21231;-60
2021/04/23 02:26:31;;;;;;;5.45;3.65;;;;;;;20.72;53.34;100828.60;1680766;84;21448;-59
2021/04/23 02:28:58;;;;;;;7.08;4.00;;;;;;;20.71;53.37;100823.63;1682780;84;21108;-59
2021/04/23 02:31:27;;;;;;;6.65;3.55;;;;;;;20.71;53.38;100822.25;1686665;84;21199;-59
2021/04/23 02:33:55;;;;;;;6.83;3.72;;;;;;;20.71;53.38;100820.88;1684036;83;21755;-59
2021/04/23 02:36:22;;;;;;;5.45;3.62;;;;;;;20.72;53.40;100815.59;1697338;84;21535;-59
2021/04/23 02:38:48;;;;;;;5.03;3.40;;;;;;;20.72;53.41;100818.92;1693649;84;21574;-59
2021/04/23 02:41:15;;;;;;;5.50;3.40;;;;;;;20.72;53.40;100817.55;1690768;83;21135;-60
2021/04/23 02:43:47;;;;;;;5.58;3.10;;;;;;;20.72;53.42;100818.36;1687264;84;21587;-60
2021/04/23 02:46:13;;;;;;;5.10;3.70;;;;;;;20.72;53.43;100820.31;1682725;84;21229;-60
2021/04/23 02:48:41;;;;;;;5.90;3.67;;;;;;;20.70;53.42;100819.27;1680676;84;21281;-59
2021/04/23 02:51:15;;;;;;;5.65;3.87;;;;;;;20.71;53.41;100814.55;1689096;84;21202;-59
2021/04/23 02:53:42;;;;;;;5.00;3.22;;;;;;;20.69;53.45;100816.80;1693126;83;21166;-59
2021/04/23 02:56:08;;;;;;;7.90;3.58;;;;;;;20.68;53.45;100819.31;1681361;82;21224;-59
2021/04/23 02:58:35;;;;;;;5.95;3.35;;;;;;;20.68;53.45;100827.05;1686979;84;21645;-59
2021/04/23 03:01:06;;;;;;;6.03;3.58;;;;;;;20.68;53.43;100831.75;1679000;84;21091;-59
2021/04/23 03:03:32;;;;;;;6.12;3.75;;;;;;;20.67;53.43;100830.11;1684763;84;21174;-59
2021/04/23 03:05:59;;;;;;;4.40;3.30;;;;;;;20.66;53.44;100828.51;1693486;82;21171;-59
2021/04/23 03:08:26;;;;;;;5.58;3.95;;;;;;;20.65;53.44;100822.72;1694668;82;21215;-60
2021/04/23 03:11:00;;;;;;;5.28;3.58;;;;;;;20.65;53.46;100831.02;1689535;84;21265;-59
2021/04/23 03:13:28;;;;;;;4.25;3.30;;;;;;;20.63;53.47;100829.94;1687546;84;21080;-58
2021/04/23 03:15:55;;;;;;;4.85;3.50;;;;;;;20.64;53.49;100834.91;1690465;84;21217;-58
2021/04/23 03:18:24;;;;;;;4.03;3.00;;;;;;;20.63;53.51;100834.09;1692731;84;21152;-59
2021/04/23 03:20:52;;;;;;;4.87;3.33;;;;;;;20.62;53.52;100829.72;1687427;84;21486;-60
2021/04/23 03:23:19;;;;;;;5.35;3.52;;;;;;;20.62;53.53;100829.72;1687898;84;22165;-58
2021/04/23 03:25:45;;;;;;;5.30;3.27;;;;;;;20.63;53.56;100835.47;1684195;83;21166;-59
2021/04/23 03:28:11;;;;;;;4.62;3.12;;;;;;;20.63;53.58;100835.47;1682402;83;21240;-58
2021/04/23 03:30:40;;;;;;;4.92;3.30;;;;;;;20.64;53.59;100834.91;1681478;83;21186;-58
2021/04/23 03:33:08;;;;;;;5.00;3.40;;;;;;;20.65;53.64;100840.69;1679030;83;21230;-59
2021/04/23 03:35:35;;;;;;;5.72;3.30;;;;;;;20.64;53.64;100843.20;1678728;84;21224;-59
2021/04/23 03:38:02;;;;;;;6.55;3.45;;;;;;;20.64;53.68;100840.44;1672082;84;21239;-59
2021/04/23 03:40:30;;;;;;;5.92;3.50;;;;;;;20.65;53.71;100844.84;1671238;84;21243;-59
2021/04/23 03:42:57;;;;;;;5.62;3.17;;;;;;;20.65;53.75;100849.80;1678010;83;21163;-59
2021/04/23 03:45:24;;;;;;;6.22;3.17;;;;;;;20.64;53.78;100851.49;1685407;84;21622;-59
2021/04/23 03:47:51;;;;;;;5.20;3.17;;;;;;;20.63;53.81;100850.67;1676042;84;21172;-58
2021/04/23 03:50:22;;;;;;;6.50;3.50;;;;;;;20.63;53.83;100849.29;1670782;84;21916;-59
2021/04/23 03:52:48;;;;;;;4.95;3.42;;;;;;;20.62;53.86;100847.69;1658070;85;21209;-59
2021/04/23 03:55:20;;;;;;;4.17;2.90;;;;;;;20.62;53.91;100849.06;1680657;84;21170;-59
2021/04/23 03:57:46;;;;;;;4.78;3.05;;;;;;;20.62;53.93;100852.39;1678697;84;21575;-59
2021/04/23 04:00:17;;;;;;;5.20;3.60;;;;;;;20.61;53.96;100857.10;1640793;86;21231;-59
2021/04/23 04:02:43;;;;;;;6.08;3.45;;;;;;;20.60;54.00;100869.28;1674232;84;27692;-59
2021/04/23 04:05:11;;;;;;;5.28;3.33;;;;;;;20.61;54.03;100872.86;1677203;84;21605;-60
2021/04/23 04:07:38;;;;;;;5.15;3.20;;;;;;;20.61;54.04;100870.10;1679602;84;21199;-60
2021/04/23 04:10:07;;;;;;;5.83;3.42;;;;;;;20.62;54.06;100873.95;1669870;84;21149;-59
2021/04/23 04:12:34;;;;;;;5.12;2.83;;;;;;;20.67;54.05;100871.02;1675184;84;21236;-60
2021/04/23 04:15:00;;;;;;;5.60;3.17;;;;;;;20.71;54.02;100874.00;1674471;84;21222;-60
2021/04/23 04:17:27;;;;;;;5.20;3.25;;;;;;;20.75;53.99;100878.55;1675594;84;22271;-60
2021/04/23 04:19:53;;;;;;;3.85;2.52;;;;;;;20.77;53.96;100883.20;1675282;84;21278;-59
2021/04/23 04:22:19;;;;;;;3.55;2.87;;;;;;;20.82;53.93;100889.17;1671661;84;21634;-59
2021/04/23 04:24:46;;;;;;;4.25;2.60;;;;;;;20.84;53.92;100889.09;1673575;84;21147;-60
2021/04/23 04:27:15;;;;;;;4.00;2.72;;;;;;;20.87;53.89;100888.48;1674644;84;21209;-60
2021/04/23 04:29:44;;;;;;;4.35;2.70;;;;;;;20.92;53.85;100893.03;1673947;84;21173;-59
2021/04/23 04:32:10;;;;;;;3.72;2.58;;;;;;;20.93;53.83;100888.58;1672637;84;21142;-60
2021/04/23 04:34:37;;;;;;;4.22;2.83;;;;;;;20.96;53.79;100891.30;1679097;84;21210;-60
2021/04/23 04:37:03;;;;;;;4.20;3.08;;;;;;;20.97;53.76;100888.19;1679106;83;21617;-60
2021/04/23 04:39:30;;;;;;;4.42;2.67;;;;;;;21.01;53.74;100895.84;1677562;83;21222;-60
2021/04/23 04:41:56;;;;;;;3.67;2.65;;;;;;;21.03;53.73;100899.12;1682387;83;21210;-59
2021/04/23 04:44:23;;;;;;;4.10;2.50;;;;;;;21.05;53.72;100903.78;1676347;83;21560;-60
2021/04/23 04:46:50;;;;;;;4.45;2.62;;;;;;;21.06;53.70;100903.44;1687144;83;21620;-59
2021/04/23 04:49:16;;;;;;;4.58;2.90;;;;;;;21.09;53.69;100906.16;1689338;83;21215;-59
2021/04/23 04:51:42;;;;;;;3.42;2.62;;;;;;;21.10;53.69;100910.53;1680692;83;21271;-59
2021/04/23 04:54:09;;;;;;;4.75;2.72;;;;;;;21.11;53.68;100906.08;1688027;83;21208;-59
2021/04/23 04:56:36;;;;;;;3.37;2.45;;;;;;;21.13;53.67;100913.50;1683883;83;21493;-59
2021/04/23 04:59:03;;;;;;;4.80;2.83;;;;;;;21.15;53.68;100913.20;1685011;83;21201;-60
2021/04/23 05:01:30;;;;;;;3.80;2.70;;;;;;;21.17;53.67;100915.91;1681746;83;21378;-60
2021/04/23 05:03:56;;;;;;;4.62;2.65;;;;;;;21.18;53.66;100923.05;1682931;83;21284;-59
2021/04/23 05:06:23;;;;;;;5.25;3.17;;;;;;;21.19;53.66;100921.92;1676994;83;21659;-59
2021/04/23 05:08:50;;;;;;;4.20;3.08;;;;;;;21.20;53.65;100921.36;1681487;83;21234;-60
2021/04/23 05:11:17;;;;;;;7.20;3.40;;;;;;;21.22;53.66;100924.61;1679145;84;21597;-59
2021/04/23 05:13:44;;;;;;;3.60;2.83;;;;;;;21.23;53.69;100926.25;1683119;84;21211;-60
2021/04/23 05:16:10;;;;;;;5.00;3.05;;;;;;;21.25;53.71;100927.58;1680047;83;21625;-60
2021/04/23 05:18:37;;;;;;;6.17;2.80;;;;;;;21.28;53.70;100930.27;1682782;83;21206;-60
2021/04/23 05:21:05;;;;;;;4.72;2.90;;;;;;;21.32;53.73;100939.56;1682609;83;21228;-59
2021/04/23 05:23:31;;;;;;;4.03;2.62;;;;;;;21.34;53.72;100941.46;1686225;83;21594;-61
2021/04/23 05:25:57;;;;;;;4.33;2.80;;;;;;;21.35;53.75;100940.30;1677312;83;21233;-60
2021/04/23 05:28:24;;;;;;;4.10;3.12;;;;;;;21.37;53.71;100947.16;1677621;83;21241;-60
2021/04/23 05:30:50;;;;;;;3.77;2.55;;;;;;;21.39;53.69;100950.98;1682269;84;21099;-60
2021/04/23 05:33:17;;;;;;;6.03;2.92;;;;;;;21.40;53.66;100953.44;1687653;83;22120;-60
2021/04/23 05:35:44;;;;;;;3.90;2.95;;;;;;;21.40;53.68;100954.00;1682674;84;21178;-60
2021/04/23 05:38:11;;;;;;;5.33;2.98;;;;;;;21.40;53.68;100956.20;1690657;84;21631;-60
2021/04/23 05:40:43;;;;;;;4.55;3.10;;;;;;;21.40;53.68;100957.59;1675695;84;21197;-60
2021/04/23 05:43:10;;;;;;;4.50;2.80;;;;;;;21.41;53.67;100955.08;1683175;84;21088;-60
2021/04/23 05:45:37;;;;;;;5.22;3.22;;;;;;;21.43;53.65;100961.66;1687347;84;20997;-60
2021/04/23 05:48:06;;;;;;;5.08;2.83;;;;;;;21.43;53.65;100965.81;1678303;84;21243;-61
2021/04/23 05:50:32;;;;;;;4.33;3.05;;;;;;;21.42;53.65;100962.82;1672683;84;22154;-60
2021/04/23 05:52:58;;;;;;;5.67;3.50;;;;;;;21.42;53.63;100964.20;1675855;84;21563;-61
2021/04/23 05:55:25;;;;;;;4.85;2.90;;;;;;;21.42;53.63;100964.20;1680651;84;21178;-61
2021/04/23 05:57:57;;;;;;;6.28;3.75;;;;;;;21.42;53.64;100971.12;1679998;84;21603;-60
2021/04/23 06:00:27;;;;;;;4.45;3.08;;;;;;;21.41;53.64;100974.45;1681985;84;21575;-60
2021/04/23 06:02:55;;;;;;;5.75;3.35;;;;;;;21.41;53.61;100975.02;1676111;84;21258;-60
2021/04/23 06:05:22;;;;;;;5.00;3.35;;;;;;;21.41;53.63;100973.63;1686392;84;21637;-60
2021/04/23 06:07:48;;;;;;;5.12;3.62;;;;;;;21.41;53.61;100979.17;1682970;84;21139;-62
2021/04/23 06:10:15;;;;;;;5.28;3.05;;;;;;;21.40;53.62;100973.38;1677162;84;21234;-61
2021/04/23 06:12:42;;;;;;;5.97;3.08;;;;;;;21.39;53.60;100980.04;1679391;84;21180;-60
2021/04/23 06:15:10;;;;;;;6.87;3.47;;;;;;;21.38;53.60;100977.87;1684803;84;21493;-60
2021/04/23 06:17:36;;;;;;;4.33;3.27;;;;;;;21.38;53.60;100982.02;1682291;84;21252;-60
2021/04/23 06:20:14;;;;;;;5.83;3.45;;;;;;;21.39;53.59;100980.86;1673908;84;21199;-60
2021/04/23 06:22:41;;;;;;;4.50;3.37;;;;;;;21.39;53.59;100996.65;1681653;84;21503;-60
2021/04/23 06:25:09;;;;;;;6.25;3.20;;;;;;;21.39;53.58;100985.58;1685159;84;21157;-60
2021/04/23 06:27:36;;;;;;;5.85;3.70;;;;;;;21.39;53.57;100985.58;1680869;84;21216;-60
2021/04/23 06:30:06;;;;;;;6.05;3.80;;;;;;;21.39;53.55;100984.19;1682512;84;21231;-60
2021/04/23 06:32:32;;;;;;;6.08;3.55;;;;;;;21.39;53.54;100987.78;1678366;84;21207;-61
2021/04/23 06:34:59;;;;;;;5.28;3.65;;;;;;;21.39;53.53;100996.65;1679218;84;21476;-60
2021/04/23 06:37:25;;;;;;;5.80;3.65;;;;;;;21.38;53.52;100992.27;1680415;84;21500;-60
2021/04/23 06:39:52;;;;;;;4.85;3.50;;;;;;;21.38;53.54;100992.27;1678408;84;21587;-60
2021/04/23 06:42:18;;;;;;;6.25;3.27;;;;;;;21.38;53.49;100997.80;1656583;84;22418;-60
2021/04/23 06:44:45;;;;;;;5.00;3.47;;;;;;;21.36;53.48;100991.19;1649237;84;21197;-60
2021/04/23 06:47:11;;;;;;;6.45;4.25;;;;;;;21.36;53.47;100998.11;1691106;83;21341;-60
2021/04/23 06:49:37;;;;;;;5.37;3.52;;;;;;;21.35;53.47;100999.23;1688491;83;21144;-60
2021/04/23 06:52:05;;;;;;;6.90;3.87;;;;;;;21.35;53.46;101006.72;1689353;83;22192;-60
2021/04/23 06:54:31;;;;;;;5.87;4.00;;;;;;;21.34;53.45;101009.27;1690689;83;21199;-60
2021/04/23 06:56:58;;;;;;;5.35;3.72;;;;;;;21.33;53.45;101013.98;1689530;83;21172;-60
2021/04/23 06:59:25;;;;;;;4.80;3.42;;;;;;;21.33;53.44;101011.77;1689378;83;21159;-60
2021/04/23 07:01:51;;;;;;;5.50;3.60;;;;;;;21.31;53.44;101007.93;1689100;83;21179;-60
2021/04/23 07:04:18;;;;;;;5.37;3.75;;;;;;;21.30;53.43;101011.03;1690303;83;22633;-60
2021/04/23 07:06:44;;;;;;;5.45;4.05;;;;;;;21.29;53.42;101005.24;1689944;83;21049;-60
2021/04/23 07:09:10;;;;;;;6.87;3.72;;;;;;;21.28;53.45;101005.80;1689860;83;21591;-60
2021/04/23 07:11:37;;;;;;;4.42;3.58;;;;;;;21.29;53.41;101005.24;1689182;83;21139;-60
2021/04/23 07:14:03;;;;;;;5.70;3.70;;;;;;;21.29;53.43;101008.83;1689350;83;21180;-60
2021/04/23 07:16:30;;;;;;;7.08;3.92;;;;;;;21.30;53.40;101009.05;1689806;83;21164;-60
2021/04/23 07:18:56;;;;;;;5.12;3.87;;;;;;;21.31;53.39;101012.08;1688954;83;21152;-60
2021/04/23 07:21:22;;;;;;;5.40;3.77;;;;;;;21.34;53.35;101012.03;1690833;83;21196;-60
2021/04/23 07:23:49;;;;;;;4.87;3.80;;;;;;;21.35;53.34;101016.41;1689004;83;21711;-62
2021/04/23 07:26:15;;;;;;;5.08;3.67;;;;;;;21.36;53.33;101015.28;1689100;83;21262;-60
2021/04/23 07:28:42;;;;;;;5.35;3.72;;;;;;;21.36;53.31;101017.48;1688706;83;21563;-60
2021/04/23 07:31:08;;;;;;;5.70;4.22;;;;;;;21.38;53.26;101018.56;1688827;83;21994;-60
2021/04/23 07:33:35;;;;;;;5.78;3.62;;;;;;;21.39;53.23;101022.94;1690872;83;21163;-60
2021/04/23 07:36:02;;;;;;;5.50;3.77;;;;;;;21.39;53.20;101022.94;1689828;83;22070;-60
2021/04/23 07:38:30;;;;;;;5.67;3.65;;;;;;;21.39;53.19;101025.14;1688872;83;21176;-61
2021/04/23 07:40:58;;;;;;;4.85;3.62;;;;;;;21.40;53.13;101025.41;1689275;83;22328;-60
2021/04/23 07:43:26;;;;;;;6.03;4.40;;;;;;;21.40;53.15;101021.81;1688796;83;21189;-60
2021/04/23 07:45:53;;;;;;;5.08;3.75;;;;;;;21.40;53.11;101025.97;1689167;83;21179;-60
2021/04/23 07:48:21;;;;;;;5.53;3.75;;;;;;;21.40;53.10;101025.41;1690604;83;21140;-60
2021/04/23 07:50:48;;;;;;;4.60;3.35;;;;;;;21.39;53.06;101029.30;1689909;83;21168;-60
2021/04/23 07:53:15;;;;;;;6.75;3.40;;;;;;;21.38;53.05;101026.87;1689812;83;21167;-61
2021/04/23 07:55:42;;;;;;;5.20;3.30;;;;;;;21.39;53.03;101032.06;1657514;85;21886;-60
2021/04/23 07:58:09;;;;;;;5.28;3.77;;;;;;;21.39;53.02;101024.33;1687130;83;21088;-60
2021/04/23 08:00:35;;;;;;;5.10;3.45;;;;;;;21.38;52.99;101029.63;1689422;83;21187;-60
2021/04/23 08:03:01;;;;;;;4.47;3.40;;;;;;;21.38;52.98;101030.45;1689602;83;21313;-60
2021/04/23 08:05:28;;;;;;;6.60;3.42;;;;;;;21.40;52.95;101037.03;1689510;83;21111;-61
2021/04/23 08:07:54;;;;;;;5.20;3.52;;;;;;;21.40;52.95;101038.42;1689637;83;21610;-60
2021/04/23 08:10:21;;;;;;;5.37;3.30;;;;;;;21.43;52.92;101039.76;1652147;85;21463;-60
2021/04/23 08:12:49;;;;;;;4.55;3.60;;;;;;;21.41;52.89;101038.68;1686009;84;21159;-61
2021/04/23 08:15:37;;;;;;;4.83;3.42;;;;;;;21.43;52.88;101039.76;1693745;84;21254;-60
2021/04/23 08:18:04;;;;;;;3.92;3.20;;;;;;;21.45;52.86;101037.47;1686754;84;21270;-60
2021/04/23 08:20:31;;;;;;;4.95;3.27;;;;;;;21.46;52.84;101034.39;1678703;83;21618;-60
2021/04/23 08:22:58;;;;;;;5.00;3.22;;;;;;;21.48;52.78;101034.88;1667360;83;21337;-60
2021/04/23 08:25:24;;;;;;;4.40;3.10;;;;;;;21.48;52.74;101037.65;1677105;84;21216;-60
2021/04/23 08:27:51;;;;;;;4.62;3.22;;;;;;;21.49;52.70;101042.05;1677431;83;21233;-61
2021/04/23 08:30:20;;;;;;;4.50;3.08;;;;;;;21.50;52.68;101038.72;1667779;84;21213;-60
2021/04/23 08:32:47;;;;;;;4.58;3.35;;;;;;;21.51;52.65;101034.27;1670482;84;21173;-60
2021/04/23 08:35:14;;;;;;;4.42;3.40;;;;;;;21.51;52.61;101034.83;1672330;84;21167;-60
2021/04/23 08:37:40;;;;;;;4.42;2.80;;;;;;;21.51;52.60;101028.73;1677783;84;21141;-64
2021/04/23 08:40:09;;;;;;;4.70;2.92;;;;;;;21.50;52.55;101027.09;1674899;83;21149;-60
2021/04/23 08:42:36;;;;;;;4.70;3.12;;;;;;;21.49;52.54;101023.24;1675228;83;21278;-60
2021/04/23 08:45:06;;;;;;;5.58;3.58;;;;;;;21.49;52.51;101021.86;1671967;84;21513;-61
2021/04/23 08:47:33;;;;;;;4.95;3.50;;;;;;;21.48;52.50;101020.22;1673368;84;21165;-60
2021/04/23 08:49:59;;;;;;;5.05;3.08;;;;;;;21.47;52.51;101021.38;1676679;83;21415;-60
2021/04/23 08:52:26;;;;;;;4.85;3.10;;;;;;;21.47;52.50;101020.81;1667350;84;21632;-59
2021/04/23 08:54:55;;;;;;;3.45;2.75;;;;;;;21.49;52.49;101018.53;1672496;84;21478;-60
2021/04/23 08:57:21;;;;;;;4.42;3.08;;;;;;;21.50;52.48;101018.78;1679340;83;21160;-60
2021/04/23 08:59:47;;;;;;;3.08;2.35;;;;;;;21.52;52.45;101016.50;1667123;84;21178;-60
2021/04/23 09:02:14;;;;;;;3.95;2.67;;;;;;;21.54;52.42;101018.39;1671156;84;21175;-61
2021/04/23 09:04:40;;;;;;;4.05;2.90;;;;;;;21.57;52.38;101009.44;1672079;84;21596;-60
2021/04/23 09:07:08;;;;;;;4.05;2.83;;;;;;;21.59;52.36;101011.34;1676823;84;21213;-60
2021/04/23 09:09:42;;;;;;;4.28;2.40;;;;;;;21.64;52.32;101006.23;1668383;84;21176;-60
2021/04/23 09:12:25;;;;;;;3.42;2.60;;;;;;;21.67;52.29;101005.58;1674524;84;21545;-61
2021/04/23 09:14:52;;;;;;;4.92;3.00;;;;;;;21.70;52.24;100991.91;1671813;84;21185;-61
2021/04/23 09:17:24;;;;;;;4.25;2.70;;;;;;;21.72;52.19;100987.44;1678428;84;21157;-61
2021/04/23 09:19:51;;;;;;;4.42;2.17;;;;;;;21.74;52.15;100991.52;1681736;83;22184;-61
2021/04/23 09:22:27;;;;;;;3.83;2.33;;;;;;;21.75;52.13;100984.84;1687161;84;21153;-61
2021/04/23 09:25:25;;;;;;;3.52;2.60;;;;;;;21.78;52.10;100981.98;1680253;83;21169;-61
2021/04/23 09:27:51;;;;;;;3.17;2.22;;;;;;;21.80;52.10;100975.01;1736378;81;21189;-61
2021/04/23 09:30:21;;;;;;;3.55;2.37;;;;;;;21.81;52.06;100976.61;1731767;81;21228;-61
2021/04/23 09:32:47;;;;;;;3.05;2.35;;;;;;;21.83;52.05;100972.15;1714433;81;21431;-58
2021/04/23 09:35:18;;;;;;;3.65;2.40;;;;;;;21.84;52.02;100969.07;1740424;81;21213;-58
2021/04/23 09:37:50;;;;;;;3.33;2.42;;;;;;;21.85;52.01;100972.06;1708488;82;21196;-60
2021/04/23 09:40:23;;;;;;;3.02;2.27;;;;;;;21.89;51.98;100965.34;1731645;81;21418;-59
2021/04/23 09:42:56;;;;;;;3.37;2.47;;;;;;;21.90;51.97;100968.33;1733896;81;21153;-60
2021/04/23 09:45:29;;;;;;;3.67;2.80;;;;;;;21.93;51.95;100966.35;1737396;81;21223;-60
2021/04/23 09:47:56;;;;;;;3.52;2.33;;;;;;;21.94;51.91;100970.73;1713615;83;21541;-60
2021/04/23 09:50:33;;;;;;;4.28;2.15;;;;;;;21.98;51.88;100970.92;1709831;82;21189;-60
2021/04/23 09:53:00;;;;;;;3.95;2.50;;;;;;;22.00;51.86;100969.45;1739763;80;21172;-59
2021/04/23 09:55:32;;;;;;;4.00;2.52;;;;;;;22.02;51.83;100964.98;1705528;82;21201;-59
2021/04/23 09:58:04;;;;;;;3.90;2.83;;;;;;;22.03;51.81;100961.88;1742806;81;22142;-59
2021/04/23 10:00:35;;;;;;;3.30;2.15;;;;;;;22.04;51.76;100949.66;1746777;81;21158;-59
2021/04/23 10:03:04;;;;;;;3.83;2.30;;;;;;;22.04;51.75;100956.58;1740846;79;21537;-60
2021/04/23 10:05:41;;;;;;;5.20;2.05;;;;;;;22.05;51.69;100950.47;1740029;81;21153;-59
2021/04/23 10:08:25;;;;;;;3.40;2.20;;;;;;;22.04;51.70;100951.61;1742908;79;21596;-59
2021/04/23 10:10:55;;;;;;;3.20;2.12;;;;;;;22.05;51.66;100954.63;1705449;82;21273;-59
2021/04/23 10:13:29;;;;;;;3.83;2.58;;;;;;;22.03;51.68;100946.63;1708293;82;21161;-60
2021/04/23 10:15:56;;;;;;;2.72;2.08;;;;;;;22.05;51.66;100953.25;1742386;81;21448;-59
2021/04/23 10:18:22;;;;;;;2.90;2.00;;;;;;;22.06;51.65;100941.85;1736478;81;21417;-60
2021/04/23 10:20:51;;;;;;;3.20;2.20;;;;;;;22.08;51.61;100935.97;1742502;81;20947;-59
2021/04/23 10:23:22;;;;;;;2.92;2.20;;;;;;;22.08;51.59;100939.55;1735057;81;21295;-59
2021/04/23 10:25:50;;;;;;;3.42;2.20;;;;;;;22.11;51.57;100935.31;1742252;81;21244;-59
2021/04/23 10:28:19;;;;;;;2.42;1.82;;;;;;;22.12;51.55;100941.10;1717388;82;21105;-59
2021/04/23 10:30:48;;;;;;;3.37;2.10;;;;;;;22.13;51.50;100935.81;1717655;82;21611;-59
2021/04/23 10:33:16;;;;;;;3.22;2.15;;;;;;;22.12;51.48;100934.99;1778059;79;21097;-61
2021/04/23 10:35:46;;;;;;;3.20;2.10;;;;;;;22.11;51.44;100926.43;1783554;79;21184;-59
2021/04/23 10:38:29;;;;;;;2.22;1.80;;;;;;;22.11;51.44;100925.61;1784979;79;21101;-60
2021/04/23 10:40:58;;;;;;;3.15;2.12;;;;;;;22.10;51.43;100926.20;1780441;79;21129;-60
2021/04/23 10:43:24;;;;;;;3.37;2.12;;;;;;;22.09;51.42;100915.44;1784955;79;20986;-60
2021/04/23 10:46:10;;;;;;;2.90;2.17;;;;;;;22.08;51.39;100929.86;1781412;79;21026;-60
2021/04/23 10:48:38;;;;;;;2.58;1.82;;;;;;;22.08;51.40;100920.16;1783910;79;22087;-59
2021/04/23 10:51:23;;;;;;;3.02;2.15;;;;;;;22.08;51.37;100921.55;1775138;79;21140;-60
2021/04/23 10:53:51;;;;;;;2.92;1.98;;;;;;;22.08;51.36;100917.95;1760911;79;21264;-59
2021/04/23 10:56:34;;;;;;;2.37;1.80;;;;;;;22.06;51.33;100915.53;1776479;78;21192;-60
2021/04/23 10:59:35;;;;;;;2.67;2.12;;;;;;;22.05;51.33;100907.53;1778778;79;21187;-60
2021/04/23 11:02:16;;;;;;;2.65;2.10;;;;;;;22.04;51.33;100911.44;1784558;79;22093;-59
2021/04/23 11:05:00;;;;;;;2.60;1.90;;;;;;;22.01;51.31;100906.55;1776489;79;21444;-60
2021/04/23 11:07:28;;;;;;;2.47;1.87;;;;;;;21.99;51.32;100901.33;1772135;79;21132;-60
2021/04/23 11:10:01;;;;;;;2.58;1.55;;;;;;;21.97;51.32;100897.27;1777467;79;21153;-59
2021/04/23 11:12:28;;;;;;;1.95;1.60;;;;;;;21.98;51.33;100893.36;1777105;79;21150;-60
2021/04/23 11:15:15;;;;;;;2.75;1.82;;;;;;;21.98;51.33;100885.83;1779770;79;21216;-60
2021/04/23 11:17:41;;;;;;;2.20;1.60;;;;;;;22.01;51.33;100900.44;1777860;79;21531;-60
2021/04/23 11:20:30;;;;;;;2.40;1.67;;;;;;;22.03;51.31;100895.95;1777101;79;21185;-59
2021/04/23 11:22:58;;;;;;;2.20;1.50;;;;;;;22.05;51.28;100887.57;1774565;79;21062;-61
2021/04/23 11:25:25;;;;;;;2.70;1.67;;;;;;;22.06;51.24;100886.44;1776369;79;21440;-61
2021/04/23 11:28:05;;;;;;;2.83;1.65;;;;;;;22.08;51.21;100882.75;1772933;79;21627;-60
2021/04/23 11:30:57;;;;;;;2.60;1.55;;;;;;;22.11;51.18;100877.12;1721608;81;21133;-60